createdAt,value
2019-03-08T00:00:35.526Z,1.60
2019-03-08T00:03:04.344Z,1.85
2019-03-08T00:05:32.657Z,1.85
2019-03-08T00:08:01.152Z,1.98
2019-03-08T00:10:29.529Z,1.77
2019-03-08T00:12:57.887Z,1.87
2019-03-08T00:15:26.281Z,1.72
2019-03-08T00:17:55.164Z,1.50
2019-03-08T00:20:23.526Z,1.60
2019-03-08T00:22:51.809Z,2.02
2019-03-08T00:25:20.125Z,1.73
2019-03-08T00:27:48.488Z,1.37
2019-03-08T00:30:16.774Z,1.57
2019-03-08T00:32:45.362Z,1.30
2019-03-08T00:35:13.645Z,1.93
2019-03-08T00:37:42.032Z,1.30
2019-03-08T00:40:13.664Z,1.50
2019-03-08T00:42:42.037Z,2.10
2019-03-08T00:45:17.673Z,1.30
2019-03-08T00:47:46.054Z,1.90
2019-03-08T00:50:14.430Z,1.70
2019-03-08T00:52:42.735Z,1.70
2019-03-08T00:55:12.219Z,1.52
2019-03-08T00:57:40.588Z,2.05
2019-03-08T01:00:18.897Z,1.60
2019-03-08T01:02:47.276Z,1.30
2019-03-08T01:05:16.896Z,1.62
2019-03-08T01:07:45.337Z,1.47
2019-03-08T01:10:25.066Z,1.37
2019-03-08T01:12:53.439Z,1.87
2019-03-08T01:15:21.812Z,1.30
2019-03-08T01:17:50.186Z,1.40
2019-03-08T01:20:19.597Z,1.30
2019-03-08T01:22:47.972Z,1.40
2019-03-08T01:25:16.278Z,1.52
2019-03-08T01:28:06.104Z,1.52
2019-03-08T01:30:35.823Z,1.12
2019-03-08T01:33:04.560Z,1.58
2019-03-08T01:35:33.234Z,1.80
2019-03-08T01:38:02.276Z,1.02
2019-03-08T01:40:30.564Z,1.17
2019-03-08T01:42:58.934Z,1.67
2019-03-08T01:45:27.652Z,1.10
2019-03-08T01:47:56.039Z,1.20
2019-03-08T01:50:24.797Z,1.30
2019-03-08T01:52:53.173Z,1.02
2019-03-08T01:55:21.539Z,1.40
2019-03-08T01:57:49.913Z,1.30
2019-03-08T02:00:20.492Z,1.53
2019-03-08T02:02:48.789Z,1.22
2019-03-08T02:05:17.698Z,1.45
2019-03-08T02:07:46.060Z,1.30
2019-03-08T02:10:17.245Z,0.90
2019-03-08T02:12:45.539Z,1.37
2019-03-08T02:15:18.161Z,1.07
2019-03-08T02:17:46.464Z,1.40
2019-03-08T02:20:16.763Z,1.12
2019-03-08T02:22:45.055Z,1.15
2019-03-08T02:25:13.577Z,1.30
2019-03-08T02:27:42.092Z,1.10
2019-03-08T02:30:12.776Z,1.30
2019-03-08T02:32:41.526Z,1.22
2019-03-08T02:35:10.129Z,1.20
2019-03-08T02:37:38.557Z,1.20
2019-03-08T02:40:29.628Z,1.50
2019-03-08T02:42:58.897Z,1.15
2019-03-08T02:45:27.343Z,1.22
2019-03-08T02:47:55.720Z,0.90
2019-03-08T02:50:24.102Z,1.45
2019-03-08T02:52:52.466Z,1.02
2019-03-08T02:55:20.841Z,1.42
2019-03-08T02:57:49.412Z,1.10
2019-03-08T03:00:19.399Z,1.57
2019-03-08T03:03:28.418Z,1.27
2019-03-08T03:05:56.837Z,1.22
2019-03-08T03:08:25.225Z,1.05
2019-03-08T03:10:53.680Z,1.42
2019-03-08T03:13:22.044Z,1.63
2019-03-08T03:15:50.337Z,1.25
2019-03-08T03:18:18.993Z,1.20
2019-03-08T03:20:47.364Z,1.05
2019-03-08T03:23:16.097Z,1.40
2019-03-08T03:25:44.462Z,1.32
2019-03-08T03:28:12.896Z,1.42
2019-03-08T03:30:41.431Z,1.65
2019-03-08T03:33:09.837Z,1.67
2019-03-08T03:35:38.198Z,1.90
2019-03-08T03:38:06.561Z,1.50
2019-03-08T03:40:34.864Z,1.65
2019-03-08T03:43:03.247Z,1.52
2019-03-08T03:45:31.612Z,1.95
2019-03-08T03:47:59.900Z,1.57
2019-03-08T03:50:28.420Z,1.75
2019-03-08T03:52:56.888Z,1.67
2019-03-08T03:55:25.436Z,1.55
2019-03-08T03:57:53.836Z,1.52
2019-03-08T04:00:23.256Z,1.90
2019-03-08T04:02:51.710Z,1.52
2019-03-08T04:05:20.078Z,2.05
2019-03-08T04:07:48.444Z,1.95
2019-03-08T04:10:17.353Z,2.12
2019-03-08T04:12:45.784Z,1.82
2019-03-08T04:15:16.556Z,2.30
2019-03-08T04:17:45.234Z,2.08
2019-03-08T04:20:16.492Z,2.12
2019-03-08T04:22:44.886Z,1.90
2019-03-08T04:25:14.073Z,1.95
2019-03-08T04:27:42.438Z,2.55
2019-03-08T04:30:13.766Z,2.03
2019-03-08T04:32:42.051Z,1.98
2019-03-08T04:35:10.532Z,1.87
2019-03-08T04:37:38.852Z,2.30
2019-03-08T04:40:09.858Z,2.87
2019-03-08T04:42:38.141Z,2.12
2019-03-08T04:45:14.709Z,2.10
2019-03-08T04:47:43.076Z,2.12
2019-03-08T04:50:15.069Z,2.08
2019-03-08T04:52:43.446Z,2.25
2019-03-08T04:55:16.678Z,2.37
2019-03-08T04:57:44.628Z,2.52
2019-03-08T05:00:15.117Z,2.63
2019-03-08T05:02:43.752Z,2.47
2019-03-08T05:05:12.154Z,3.00
2019-03-08T05:07:40.608Z,2.58
2019-03-08T05:10:19.076Z,2.83
2019-03-08T05:12:47.384Z,2.42
2019-03-08T05:15:16.121Z,2.90
2019-03-08T05:17:44.491Z,2.83
2019-03-08T05:20:13.208Z,2.27
2019-03-08T05:22:41.613Z,2.08
2019-03-08T05:25:12.044Z,2.33
2019-03-08T05:27:40.428Z,2.70
2019-03-08T05:30:18.450Z,2.42
2019-03-08T05:32:46.821Z,3.10
2019-03-08T05:35:15.210Z,2.62
2019-03-08T05:37:43.622Z,2.67
2019-03-08T05:40:15.533Z,3.10
2019-03-08T05:42:44.032Z,2.70
2019-03-08T05:45:13.593Z,2.23
2019-03-08T05:47:41.947Z,2.60
2019-03-08T05:50:11.277Z,2.70
2019-03-08T05:52:39.844Z,2.40
2019-03-08T05:55:29.261Z,2.85
2019-03-08T05:57:57.569Z,2.70
2019-03-08T06:00:32.454Z,3.02
2019-03-08T06:03:00.474Z,3.12
2019-03-08T06:05:34.473Z,2.80
2019-03-08T06:08:02.778Z,2.87
2019-03-08T06:10:32.381Z,3.00
2019-03-08T06:13:02.002Z,2.95
2019-03-08T06:15:30.392Z,2.92
2019-03-08T06:17:58.996Z,2.55
2019-03-08T06:20:27.363Z,2.58
2019-03-08T06:22:55.687Z,2.75
2019-03-08T06:25:45.091Z,2.90
2019-03-08T06:28:17.350Z,2.83
2019-03-08T06:30:45.709Z,3.02
2019-03-08T06:33:16.357Z,3.60
2019-03-08T06:35:44.717Z,3.10
2019-03-08T06:38:14.664Z,3.57
2019-03-08T06:40:42.970Z,3.80
2019-03-08T06:43:11.632Z,3.87
2019-03-08T06:45:39.961Z,3.92
2019-03-08T06:48:08.336Z,4.83
2019-03-08T06:50:36.705Z,4.25
2019-03-08T06:53:05.485Z,7.08
2019-03-08T06:55:33.852Z,5.87
2019-03-08T06:58:04.168Z,7.72
2019-03-08T07:00:34.129Z,6.83
2019-03-08T07:03:02.900Z,7.10
2019-03-08T07:05:31.260Z,7.17
2019-03-08T07:07:59.650Z,7.95
2019-03-08T07:10:27.942Z,6.58
2019-03-08T07:13:02.882Z,7.75
2019-03-08T07:15:26.393Z,6.75
2019-03-08T07:17:54.785Z,6.45
2019-03-08T07:20:38.191Z,7.30
2019-03-08T07:23:11.425Z,7.47
2019-03-08T07:25:57.913Z,6.53
2019-03-08T07:28:36.851Z,6.80
2019-03-08T07:31:13.136Z,7.14
2019-03-08T07:33:59.529Z,6.72
2019-03-08T07:36:47.786Z,6.25
2019-03-08T07:39:35.302Z,5.90
2019-03-08T07:42:22.568Z,6.40
2019-03-08T07:45:04.547Z,5.87
2019-03-08T07:47:34.789Z,7.53
2019-03-08T07:50:17.484Z,5.83
2019-03-08T07:53:03.690Z,6.03
2019-03-08T07:55:49.964Z,5.55
2019-03-08T07:58:34.709Z,5.77
2019-03-08T08:01:19.458Z,5.15
2019-03-08T08:03:49.489Z,5.58
2019-03-08T08:06:19.505Z,5.43
2019-03-08T08:08:52.153Z,5.10
2019-03-08T08:11:32.465Z,4.53
2019-03-08T08:14:03.571Z,5.12
2019-03-08T08:16:33.597Z,4.75
2019-03-08T08:19:03.608Z,5.80
2019-03-08T08:21:34.039Z,4.60
2019-03-08T08:24:06.853Z,4.70
2019-03-08T08:26:52.033Z,4.55
2019-03-08T08:29:38.207Z,3.97
2019-03-08T08:32:08.279Z,4.22
2019-03-08T08:34:47.211Z,4.12
2019-03-08T08:37:35.482Z,4.83
2019-03-08T08:40:17.255Z,4.38
2019-03-08T08:43:02.578Z,3.67
2019-03-08T08:45:41.704Z,4.25
2019-03-08T08:48:15.172Z,4.20
2019-03-08T08:50:48.352Z,4.65
2019-03-08T08:53:18.361Z,4.00
2019-03-08T08:56:04.035Z,3.60
2019-03-08T08:58:42.688Z,4.03
2019-03-08T09:01:12.766Z,3.53
2019-03-08T09:03:45.518Z,3.55
2019-03-08T09:06:30.540Z,3.33
2019-03-08T09:09:03.366Z,3.10
2019-03-08T09:11:33.389Z,3.50
2019-03-08T09:14:18.282Z,3.75
2019-03-08T09:19:42.919Z,3.42
2019-03-08T09:22:24.655Z,3.90
2019-03-08T09:25:12.517Z,3.92
2019-03-08T09:27:45.292Z,4.10
2019-03-08T09:30:34.296Z,3.40
2019-03-08T09:33:06.875Z,3.30
2019-03-08T09:35:36.873Z,3.58
2019-03-08T09:38:13.253Z,2.95
2019-03-08T09:40:59.336Z,2.77
2019-03-08T09:43:38.520Z,3.20
2019-03-08T09:46:08.734Z,3.02
2019-03-08T09:48:53.825Z,3.60
2019-03-08T09:51:23.749Z,2.80
2019-03-08T09:54:02.693Z,3.42
2019-03-08T09:56:35.489Z,2.98
2019-03-08T09:59:06.360Z,3.15
2019-03-08T10:01:52.478Z,3.60
2019-03-08T10:04:28.741Z,3.20
2019-03-08T10:07:10.659Z,2.75
2019-03-08T10:09:40.624Z,2.85
2019-03-08T10:15:28.901Z,2.80
2019-03-08T10:17:58.894Z,3.17
2019-03-08T10:20:28.906Z,1.92
2019-03-08T10:23:19.924Z,2.98
2019-03-08T10:25:47.058Z,2.65
2019-03-08T10:28:20.192Z,3.08
2019-03-08T10:31:02.166Z,2.43
2019-03-08T10:34:27.680Z,2.75
2019-03-08T10:37:03.549Z,2.30
2019-03-08T10:39:42.566Z,2.27
2019-03-08T10:42:15.498Z,2.40
2019-03-08T10:44:48.120Z,2.05
2019-03-08T10:47:34.557Z,2.17
2019-03-08T10:50:09.534Z,2.42
2019-03-08T10:52:39.780Z,2.20
2019-03-08T10:55:14.984Z,2.20
2019-03-08T10:57:51.622Z,2.10
2019-03-08T11:00:24.906Z,2.20
2019-03-08T11:03:13.992Z,2.12
2019-03-08T11:06:00.752Z,2.75
2019-03-08T11:08:31.068Z,1.90
2019-03-08T11:11:06.628Z,2.70
2019-03-08T11:13:43.169Z,1.87
2019-03-08T11:16:20.548Z,1.40
2019-03-08T11:18:56.349Z,1.80
2019-03-08T11:21:35.956Z,2.07
2019-03-08T11:24:19.890Z,1.84
2019-03-08T11:27:05.227Z,2.25
2019-03-08T11:29:40.525Z,1.80
2019-03-08T11:32:23.116Z,1.90
2019-03-08T11:34:52.068Z,2.00
2019-03-08T11:37:27.864Z,2.55
2019-03-08T11:40:06.974Z,2.27
2019-03-08T11:42:37.684Z,2.17
2019-03-08T11:45:09.473Z,2.10
2019-03-08T11:47:42.660Z,1.60
2019-03-08T11:50:24.954Z,2.10
2019-03-08T11:53:02.050Z,4.93
2019-03-08T11:55:50.578Z,2.70
2019-03-08T11:58:26.573Z,2.30
2019-03-08T12:00:57.677Z,2.52
2019-03-08T12:43:35.752Z,1.85
2019-03-08T12:46:06.350Z,1.70
2019-03-08T12:48:42.121Z,1.50
2019-03-08T12:51:12.186Z,0.80
2019-03-08T12:53:44.747Z,1.10
2019-03-08T12:56:20.291Z,1.20
2019-03-08T12:58:56.349Z,1.60
2019-03-08T13:01:29.042Z,1.20
2019-03-08T13:03:59.743Z,1.40
2019-03-08T13:06:29.733Z,1.40
2019-03-08T13:08:59.689Z,1.57
2019-03-08T13:11:33.156Z,1.30
2019-03-08T13:13:58.996Z,0.73
2019-03-08T13:16:27.460Z,1.40
2019-03-08T13:18:55.812Z,1.30
2019-03-08T13:21:24.186Z,1.27
2019-03-08T13:23:52.560Z,1.00
2019-03-08T13:26:20.936Z,1.07
2019-03-08T13:28:49.662Z,1.10
2019-03-08T13:31:18.122Z,1.90
2019-03-08T13:33:46.538Z,1.23
2019-03-08T13:36:14.837Z,1.10
2019-03-08T13:38:43.199Z,1.30
2019-03-08T13:41:11.580Z,1.57
2019-03-08T13:43:40.447Z,0.87
2019-03-08T13:46:08.814Z,1.00
2019-03-08T13:48:37.211Z,1.40
2019-03-08T13:51:05.852Z,1.30
2019-03-08T13:53:34.244Z,1.17
2019-03-08T13:56:02.866Z,1.17
2019-03-08T13:58:31.656Z,1.53
2019-03-08T14:01:00.053Z,1.33
2019-03-08T14:03:28.399Z,1.50
2019-03-08T14:05:56.838Z,1.90
2019-03-08T14:08:31.415Z,1.40
2019-03-08T14:11:00.291Z,1.13
2019-03-08T14:13:28.663Z,1.30
2019-03-08T14:15:57.045Z,1.40
2019-03-08T14:18:25.426Z,1.20
2019-03-08T14:20:53.790Z,1.83
2019-03-08T14:23:22.177Z,1.20
2019-03-08T14:25:54.976Z,1.40
2019-03-08T14:28:24.247Z,1.12
2019-03-08T14:31:03.692Z,1.67
2019-03-08T14:33:34.329Z,1.80
2019-03-08T14:36:02.995Z,1.17
2019-03-08T14:38:38.758Z,1.47
2019-03-08T14:41:11.923Z,1.43
2019-03-08T14:43:43.334Z,1.60
2019-03-08T14:46:17.176Z,1.70
2019-03-08T14:48:46.597Z,1.40
2019-03-08T14:51:16.115Z,1.37
2019-03-08T14:53:44.511Z,2.00
2019-03-08T14:56:13.334Z,2.40
2019-03-08T14:58:41.853Z,2.57
2019-03-08T15:01:10.832Z,2.87
2019-03-08T15:03:43.390Z,3.20
2019-03-08T15:06:09.606Z,3.10
2019-03-08T15:08:37.979Z,2.80
2019-03-08T15:11:07.797Z,3.47
2019-03-08T15:13:36.426Z,3.33
2019-03-08T15:16:05.630Z,3.33
2019-03-08T15:18:34.096Z,3.30
2019-03-08T15:21:02.941Z,3.77
2019-03-08T15:23:37.942Z,4.07
2019-03-08T15:26:06.271Z,4.10
2019-03-08T15:28:34.648Z,3.40
2019-03-08T15:31:03.087Z,4.43
2019-03-08T15:33:31.450Z,4.30
2019-03-08T15:35:59.851Z,4.07
2019-03-08T15:38:30.529Z,4.00
2019-03-08T15:40:58.538Z,4.63
2019-03-08T15:43:26.926Z,4.53
2019-03-08T15:45:55.460Z,5.40
2019-03-08T15:48:24.310Z,4.47
2019-03-08T15:50:52.678Z,4.93
2019-03-08T15:53:21.058Z,5.55
2019-03-08T15:55:52.924Z,5.47
2019-03-08T15:58:19.828Z,5.55
2019-03-08T16:00:48.753Z,5.90
2019-03-08T16:03:17.486Z,5.37
2019-03-08T16:05:45.774Z,6.10
2019-03-08T16:08:14.554Z,5.58
2019-03-08T16:10:42.849Z,5.27
2019-03-08T16:13:11.150Z,5.57
2019-03-08T16:15:39.525Z,5.87
2019-03-08T16:18:07.928Z,5.77
2019-03-08T16:20:37.393Z,5.57
2019-03-08T16:23:06.964Z,6.00
2019-03-08T16:25:40.529Z,6.00
2019-03-08T16:28:06.677Z,5.50
2019-03-08T16:30:59.070Z,6.03
2019-03-08T16:33:41.506Z,5.73
2019-03-08T16:36:14.404Z,5.83
2019-03-08T16:38:47.381Z,5.50
2019-03-08T16:41:17.310Z,5.50
2019-03-08T16:44:04.295Z,5.40
2019-03-08T16:46:36.738Z,4.53
2019-03-08T16:49:14.811Z,5.90
2019-03-08T16:52:01.707Z,4.53
2019-03-08T16:54:34.263Z,4.80
2019-03-08T16:57:20.428Z,5.20
2019-03-08T16:59:59.087Z,5.13
2019-03-08T17:02:38.218Z,3.97
2019-03-08T17:05:24.747Z,4.30
2019-03-08T17:08:00.552Z,3.30
2019-03-08T17:10:46.915Z,4.10
2019-03-08T17:13:19.391Z,4.33
2019-03-08T17:16:05.109Z,3.70
2019-03-08T17:18:40.646Z,4.43
2019-03-08T17:21:22.538Z,3.90
2019-03-08T17:23:56.222Z,3.60
2019-03-08T17:26:35.062Z,3.50
2019-03-08T17:29:05.028Z,3.90
2019-03-08T17:31:36.244Z,3.70
2019-03-08T17:34:12.181Z,4.00
2019-03-08T17:36:51.085Z,4.40
2019-03-08T17:39:37.545Z,3.70
2019-03-08T17:42:07.845Z,3.97
2019-03-08T17:44:37.762Z,4.00
2019-03-08T17:47:10.165Z,4.90
2019-03-08T17:49:56.651Z,4.83
2019-03-08T17:52:26.654Z,5.43
2019-03-08T17:55:12.847Z,7.23
2019-03-08T17:58:02.812Z,8.70
2019-03-08T18:00:38.238Z,17.20
2019-03-08T18:03:11.098Z,20.27
2019-03-08T18:05:41.044Z,29.10
2019-03-08T18:08:13.949Z,28.53
2019-03-08T18:11:00.468Z,24.70
2019-03-08T18:13:30.489Z,26.07
2019-03-08T18:16:07.931Z,17.90
2019-03-08T18:18:37.930Z,13.47
2019-03-08T18:21:16.829Z,12.20
2019-03-08T18:23:46.881Z,8.17
2019-03-08T18:26:29.054Z,7.53
2019-03-08T18:28:59.096Z,6.80
2019-03-08T18:31:45.059Z,5.80
2019-03-08T18:34:15.590Z,5.03
2019-03-08T18:36:54.631Z,5.77
2019-03-08T18:39:33.628Z,5.30
2019-03-08T18:42:03.647Z,5.13
2019-03-08T18:44:36.478Z,5.80
2019-03-08T18:47:11.709Z,5.10
2019-03-08T18:49:46.719Z,4.50
2019-03-08T18:52:32.762Z,4.75
2019-03-08T18:55:03.454Z,4.83
2019-03-08T18:57:39.288Z,5.00
2019-03-08T19:00:18.733Z,5.20
2019-03-08T19:03:03.040Z,4.50
2019-03-08T19:05:36.281Z,4.87
2019-03-08T19:08:12.910Z,4.40
2019-03-08T19:10:48.670Z,5.87
2019-03-08T19:13:30.623Z,5.95
2019-03-08T19:16:18.475Z,5.17
2019-03-08T19:18:51.206Z,4.20
2019-03-08T19:21:21.175Z,3.27
2019-03-08T19:23:51.804Z,3.27
2019-03-08T19:26:22.010Z,3.07
2019-03-08T19:28:58.007Z,2.77
2019-03-08T19:31:46.147Z,2.17
2019-03-08T19:34:16.279Z,2.50
2019-03-08T19:36:49.217Z,2.43
2019-03-08T19:39:28.217Z,2.37
2019-03-08T19:42:14.689Z,2.67
2019-03-08T19:44:47.127Z,2.73
2019-03-08T19:47:36.357Z,2.30
2019-03-08T19:50:13.384Z,2.10
2019-03-08T19:52:43.329Z,2.67
2019-03-08T19:55:13.786Z,2.20
2019-03-08T19:57:43.715Z,2.53
2019-03-08T20:00:17.068Z,1.70
2019-03-08T20:02:50.215Z,2.37
2019-03-08T20:05:32.175Z,2.20
2019-03-08T20:08:02.267Z,2.58
2019-03-08T20:10:38.218Z,2.20
2019-03-08T20:13:08.173Z,1.70
2019-03-08T20:15:38.132Z,2.37
2019-03-08T20:18:26.354Z,2.63
2019-03-08T20:20:56.382Z,2.23
2019-03-08T20:23:32.074Z,1.90
2019-03-08T20:26:05.007Z,2.43
2019-03-08T20:28:35.429Z,2.30
2019-03-08T20:31:09.057Z,2.33
2019-03-08T20:33:58.373Z,2.13
2019-03-08T20:36:34.289Z,2.63
2019-03-08T20:39:19.085Z,2.07
2019-03-08T20:41:51.940Z,2.00
2019-03-08T20:44:30.989Z,1.70
2019-03-08T20:47:09.935Z,2.15
2019-03-08T20:49:38.300Z,2.40
2019-03-08T20:52:06.700Z,1.83
2019-03-08T20:54:35.258Z,2.40
2019-03-08T20:57:04.859Z,1.97
2019-03-08T20:59:33.256Z,1.87
2019-03-08T21:02:01.660Z,2.47
2019-03-08T21:04:30.011Z,1.90
2019-03-08T21:06:58.416Z,2.00
2019-03-08T21:09:26.834Z,2.00
2019-03-08T21:11:55.165Z,3.47
2019-03-08T21:14:23.667Z,1.90
2019-03-08T21:17:00.461Z,2.33
2019-03-08T21:19:28.811Z,3.07
2019-03-08T21:21:57.240Z,2.03
2019-03-08T21:24:25.635Z,2.00
2019-03-08T21:26:53.991Z,2.03
2019-03-08T21:29:22.354Z,2.13
2019-03-08T21:31:50.772Z,2.33
2019-03-08T21:34:19.418Z,2.35
2019-03-08T21:36:47.785Z,2.57
2019-03-08T21:39:16.147Z,2.03
2019-03-08T21:41:44.533Z,2.20
2019-03-08T21:44:13.119Z,2.30
2019-03-08T21:46:41.490Z,2.58
2019-03-08T21:49:09.853Z,2.37
2019-03-08T21:51:39.863Z,2.33
2019-03-08T21:54:09.897Z,2.43
2019-03-08T21:56:38.540Z,2.67
2019-03-08T21:59:11.014Z,2.70
2019-03-08T22:01:39.328Z,3.00
2019-03-08T22:04:09.261Z,3.07
2019-03-08T22:06:37.596Z,2.63
2019-03-08T22:09:18.155Z,3.20
2019-03-08T22:11:46.802Z,2.80
2019-03-08T22:14:15.179Z,2.80
2019-03-08T22:16:43.534Z,2.97
2019-03-08T22:19:12.273Z,2.87
2019-03-08T22:21:40.655Z,3.13
2019-03-08T22:24:13.314Z,3.63
2019-03-08T22:26:39.231Z,3.00
2019-03-08T22:29:07.705Z,3.10
2019-03-08T22:31:36.079Z,2.83
2019-03-08T22:34:04.793Z,2.72
2019-03-08T22:36:33.087Z,2.33
2019-03-08T22:39:01.845Z,2.77
2019-03-08T22:41:30.230Z,2.70
2019-03-08T22:43:58.598Z,3.13
2019-03-08T22:46:26.969Z,2.57
2019-03-08T22:48:55.580Z,2.90
2019-03-08T22:51:23.896Z,2.70
2019-03-08T22:53:52.266Z,2.60
2019-03-08T22:56:20.629Z,2.90
2019-03-08T22:58:48.947Z,3.07
2019-03-08T23:01:19.726Z,3.30
2019-03-08T23:03:48.026Z,2.90
2019-03-08T23:06:16.871Z,3.20
2019-03-08T23:08:45.213Z,3.13
2019-03-08T23:11:13.599Z,3.30
2019-03-08T23:13:41.917Z,3.47
2019-03-08T23:16:10.193Z,3.30
2019-03-08T23:18:38.516Z,3.37
2019-03-08T23:21:06.873Z,2.57
2019-03-08T23:23:35.236Z,2.83
2019-03-08T23:26:04.544Z,2.80
2019-03-08T23:28:34.744Z,2.97
2019-03-08T23:31:17.031Z,2.60
2019-03-08T23:33:45.381Z,2.40
2019-03-08T23:36:13.785Z,2.45
2019-03-08T23:38:42.083Z,2.47
2019-03-08T23:41:10.361Z,2.50
2019-03-08T23:43:38.934Z,2.50
2019-03-08T23:46:07.768Z,2.60
2019-03-08T23:48:36.160Z,2.60
2019-03-08T23:51:05.640Z,2.60
2019-03-08T23:53:34.662Z,2.57
2019-03-08T23:56:04.510Z,2.63
2019-03-08T23:58:32.869Z,2.70
